Date,TemperatureHighF,TemperatureAvgF,TemperatureLowF,DewpointHighF,DewpointAvgF,DewpointLowF,HumidityHigh,HumidityAvg,HumidityLow,PressureMaxIn,PressureMinIn,WindSpeedMaxMPH,WindSpeedAvgMPH,GustSpeedMaxMPH,PrecipitationSumIn
2013-1-17,68.5,68.2,67.6,46.4,45.6,45.0,45,44,44,30.23,30.15,0,0,0,0.00
2013-1-18,68.2,67.7,67.3,46.1,43.4,42.2,45,41,40,30.29,30.17,0,0,0,0.00
2013-1-19,69.1,68.1,67.1,44.1,43.3,42.8,42,41,40,29.93,29.77,0,0,0,0.00
2013-1-21,13.8,11.3,10.4,0.2,-0.9,-1.7,59,57,54,29.96,29.93,11,5,16,0.00
2013-1-22,17.8,11.5,4.8,-1.0,-2.8,-5.3,66,52,38,30.12,29.98,16,6,16,0.00
2013-1-23,20.8,16.1,10.9,14.0,5.5,-2.0,84,64,37,30.10,29.85,11,3,11,0.00
2013-1-24,25.3,17.6,10.8,14.1,6.6,2.9,84,62,45,30.33,29.88,17,4,17,0.00
2013-1-25,25.7,21.3,17.1,18.9,13.8,7.1,86,73,58,30.22,29.80,9,4,11,0.00
2013-1-26,36.5,26.6,24.4,21.5,18.8,16.5,79,73,53,30.14,29.88,6,4,13,0.06
2013-1-27,37.2,26.7,14.0,31.0,19.4,9.8,92,74,56,30.22,29.95,8,3,8,0.19
2013-1-28,52.0,46.6,32.9,51.2,44.3,31.0,97,92,82,29.94,29.79,11,6,11,0.28
2013-1-29,65.8,58.6,49.3,57.6,53.4,48.2,97,83,69,29.83,29.39,20,8,20,0.01
2013-1-30,67.5,53.2,33.1,57.8,47.2,26.2,95,80,71,29.37,29.06,28,11,28,0.60
2013-1-31,32.0,25.6,15.4,26.2,17.6,8.9,89,72,50,29.77,29.31,21,9,21,0.00
2013-2-1,17.8,11.6,5.7,5.5,1.5,-2.3,73,64,52,30.14,29.79,14,7,14,0.00
2013-2-2,27.9,20.7,8.1,23.2,15.6,3.3,86,81,75,30.05,29.75,8,4,15,0.00
2013-2-3,24.6,22.2,18.5,14.6,12.3,10.4,77,65,57,29.81,29.73,14,8,15,0.00
2013-2-4,30.9,30.7,30.7,27.5,27.3,27.1,87,87,86,29.63,29.62,2,1,4,0.00
2013-2-8,33.3,32.7,30.7,27.3,25.1,24.7,87,73,71,30.01,29.62,14,5,14,0.13
2013-2-9,43.3,33.3,29.1,25.0,20.9,17.2,74,61,39,30.18,30.01,9,3,9,0.13
2013-2-10,46.2,42.5,29.3,27.6,26.5,21.7,73,53,48,30.04,29.84,8,4,8,0.13
2013-2-11,52.2,47.2,41.2,47.8,35.8,27.4,90,66,48,29.84,29.53,24,11,24,0.02
2013-2-12,51.3,38.1,28.4,27.4,24.7,22.1,77,60,36,29.90,29.70,14,4,17,0.02
2013-2-14,51.6,46.7,34.3,35.6,33.9,24.5,72,61,54,29.73,29.60,17,8,17,0.02
2013-2-15,44.2,35.9,27.9,32.7,28.5,24.4,89,75,56,29.84,29.73,11,4,11,0.02
2013-2-16,28.8,27.7,26.6,20.5,18.5,17.4,75,68,63,29.82,29.81,13,9,13,0.00
2013-2-17,32.4,24.2,16.7,17.6,9.4,6.5,71,54,36,30.00,29.80,14,3,14,0.00
2013-2-18,59.5,39.2,16.5,39.5,23.3,8.8,80,54,33,29.99,29.53,32,8,32,0.06
2013-2-19,45.1,31.3,22.8,40.9,25.0,13.7,93,78,63,29.85,29.42,24,8,24,0.17
2013-2-20,27.0,21.1,15.8,17.2,11.4,7.7,81,66,53,30.07,29.85,20,6,20,0.00
2013-2-21,27.1,21.8,21.0,21.2,12.4,11.2,79,66,65,30.12,29.88,15,5,15,0.00
2013-2-22,27.7,27.1,26.6,24.1,22.7,20.9,87,83,78,29.88,29.72,13,3,15,0.00
2013-2-24,41.4,33.3,23.9,23.7,21.2,18.5,81,61,48,29.99,29.91,15,4,15,0.08
2013-2-25,47.3,33.4,19.4,27.9,22.6,16.5,89,67,45,30.01,29.77,14,4,14,0.00
2013-2-26,44.6,39.3,34.0,42.8,34.0,23.8,94,82,61,29.77,29.25,19,7,19,0.40
2013-2-27,43.3,38.5,32.5,40.6,36.1,29.3,94,91,87,29.52,29.33,16,5,16,0.14
2013-2-28,37.6,34.1,31.3,33.2,31.2,28.7,94,89,81,29.76,29.49,12,3,12,0.09
2013-3-1,37.2,33.1,28.4,31.7,28.2,21.7,91,82,73,29.87,29.07,10,3,10,0.00
2013-3-2,28.4,27.0,25.5,22.1,19.4,17.8,79,73,68,29.90,29.84,11,4,11,0.00
2013-3-3,33.8,28.1,24.3,20.6,17.5,14.3,80,65,48,29.91,29.85,13,4,13,0.00
2013-3-5,32.9,31.7,0.0,31.5,30.7,15.2,95,91,93,29.92,29.91,0,0,0,0.28
2013-3-6,34.7,30.9,28.9,31.3,28.8,27.2,95,92,85,30.55,29.92,0,0,0,0.00
2013-3-7,45.5,35.1,29.3,34.4,28.9,23.8,92,79,57,30.67,30.53,8,2,8,0.46
2013-3-8,46.8,32.6,24.3,25.9,23.1,19.8,84,69,41,30.78,30.68,9,2,9,0.00
2013-3-9,56.8,42.1,26.8,37.2,30.7,22.2,88,66,46,30.70,29.36,14,4,14,0.01
2013-3-10,70.2,58.6,48.2,40.1,34.9,31.3,62,42,25,30.37,30.17,21,6,21,0.00
2013-3-11,60.4,49.5,39.0,51.0,43.7,32.1,92,81,46,30.19,29.91,23,8,23,1.04
2013-3-12,43.7,37.0,31.6,32.3,29.0,25.5,90,73,55,30.34,30.16,17,6,17,0.00
2013-3-13,33.4,32.5,31.1,30.8,29.7,28.0,90,89,88,30.34,30.31,11,4,11,0.00
2013-3-14,47.8,33.3,20.7,21.9,18.7,15.7,86,58,33,30.64,30.45,10,3,10,0.00
2013-3-15,54.1,40.9,27.9,40.9,32.0,20.0,90,72,52,30.47,30.14,8,3,8,0.00
2013-3-16,57.7,43.2,34.0,48.8,38.8,29.7,96,85,71,30.35,29.94,11,5,11,0.12
2013-3-17,38.7,35.6,32.4,29.9,27.1,24.4,85,71,64,30.48,30.34,11,6,11,0.00
2013-3-18,50.2,39.9,32.5,47.5,36.9,27.0,96,89,71,30.34,29.92,20,5,20,0.79
2013-3-19,44.1,36.4,27.9,34.3,21.5,13.7,83,57,32,30.39,30.11,35,11,35,0.00
2013-3-20,38.7,31.1,23.4,19.7,15.6,7.7,66,52,40,30.38,30.26,21,7,21,0.00
2013-3-21,33.4,25.3,18.9,19.4,13.1,8.6,76,60,48,30.33,30.24,15,5,15,0.00
2013-3-22,47.5,32.7,19.9,21.2,16.5,13.1,78,54,30,30.37,30.30,14,3,14,0.00
2013-3-23,54.3,38.1,26.2,25.3,21.4,17.4,76,54,25,30.39,30.25,10,2,10,0.00
2013-3-24,35.6,33.1,31.5,31.2,27.4,22.7,95,80,61,30.25,29.75,17,6,17,0.04
2013-3-25,34.9,32.0,29.1,31.7,29.9,27.9,95,92,87,30.23,29.74,13,2,13,0.07
2013-3-26,44.1,35.8,31.3,32.6,28.8,24.8,92,77,56,30.52,30.23,14,4,14,0.31
2013-3-27,46.2,37.1,30.9,30.0,25.8,21.5,80,64,41,30.60,30.51,17,5,17,0.00
2013-3-28,54.0,40.0,29.1,28.9,25.0,21.9,75,56,34,30.66,30.58,14,4,14,0.00
2013-3-29,58.1,40.3,25.0,31.8,27.8,21.7,89,63,34,30.63,30.52,9,1,9,0.00
2013-3-30,62.4,45.5,26.6,34.2,28.7,23.2,90,57,25,30.57,29.01,11,2,11,0.00
2013-3-31,61.5,49.8,43.7,47.0,40.6,32.1,93,72,44,30.27,28.87,14,3,14,0.05
2013-4-1,49.1,41.4,33.3,41.2,25.2,16.4,78,54,34,30.44,30.10,17,6,17,0.00
2013-4-2,48.6,35.5,20.5,20.7,16.3,13.5,77,47,26,30.58,30.44,16,4,16,0.00
2013-4-3,51.4,36.9,23.0,18.1,14.2,10.6,67,41,23,30.73,30.57,16,3,16,0.00
2013-4-4,60.6,42.5,30.6,20.7,15.7,5.6,54,37,13,30.67,30.30,14,3,14,0.00
2013-4-5,61.0,45.7,28.0,33.9,25.0,19.0,74,46,26,30.47,30.29,16,3,16,0.00
2013-4-6,66.7,50.0,34.5,35.8,26.7,20.6,62,42,23,30.55,30.23,16,6,16,0.00
2013-4-7,78.6,65.1,56.5,49.8,41.0,35.0,68,42,28,30.31,30.16,21,7,21,0.00
2013-4-8,73.4,63.3,51.8,55.3,52.1,48.5,92,68,50,30.33,30.19,24,5,24,0.00
2013-4-9,83.7,68.7,52.3,60.9,54.7,49.5,92,64,36,30.38,30.24,27,5,27,0.00
2013-4-10,71.4,70.8,69.6,58.9,58.6,58.1,68,65,64,30.28,30.26,9,4,10,0.00
2013-4-11,66.2,61.5,58.6,62.7,59.2,55.6,97,92,80,30.17,29.88,11,3,11,0.83
2013-4-12,58.8,47.3,41.0,58.3,39.9,31.5,100,76,57,30.23,29.84,19,7,19,0.09
2013-4-13,58.3,46.3,38.7,38.1,34.5,31.3,77,64,46,30.36,30.23,19,6,19,0.00
2013-4-14,72.7,51.9,34.2,46.0,37.7,30.7,88,63,32,30.41,30.22,12,2,12,0.00
2013-4-15,70.7,61.8,50.9,54.1,49.4,40.5,81,64,53,30.33,30.22,14,4,14,0.00
2013-4-16,80.4,63.9,56.3,64.0,57.4,51.6,97,80,54,30.50,30.27,16,5,16,0.39
2013-4-17,78.1,62.5,51.3,66.1,58.4,50.2,97,87,62,30.56,30.30,10,4,10,0.21
2013-4-18,85.3,74.0,63.5,64.7,58.5,50.6,91,61,39,30.32,29.95,29,10,29,0.00
2013-4-19,74.8,50.2,39.7,60.4,40.0,29.2,93,69,47,30.27,29.76,27,10,27,0.47
2013-4-20,50.2,39.7,35.1,33.4,29.7,26.3,88,68,43,30.55,30.27,18,7,18,0.01
2013-4-21,57.9,44.1,30.0,29.5,24.9,21.2,70,49,27,30.86,30.70,9,4,9,0.00
2013-4-22,74.1,55.0,36.3,40.2,32.7,25.6,67,46,23,30.70,30.47,7,2,7,0.00
2013-4-23,73.9,63.5,45.1,52.1,48.2,37.1,78,58,39,30.47,30.18,12,5,12,0.00
2013-4-24,66.0,56.2,36.0,55.7,46.4,32.5,94,71,56,30.53,30.11,17,7,17,0.61
2013-4-25,62.2,49.5,32.2,38.6,33.1,25.1,96,56,36,30.69,30.53,21,6,21,0.00
2013-4-26,44.4,34.5,29.8,27.9,27.3,26.6,89,76,51,30.75,30.68,4,0,4,0.00
2013-4-27,72.7,61.0,37.6,50.6,41.4,32.9,84,52,27,30.68,30.40,15,4,15,0.00
2013-4-28,72.3,59.5,54.5,59.8,55.3,49.4,96,86,60,30.40,30.15,12,3,12,0.26
2013-4-29,67.5,60.4,55.8,58.0,55.4,52.9,97,85,65,30.32,30.20,8,2,8,0.05
2013-4-30,81.3,64.0,46.6,57.5,52.8,45.8,100,72,36,30.40,30.31,8,2,8,0.00
2013-5-1,86.4,69.4,51.8,62.2,55.2,49.8,94,65,35,30.52,30.40,7,3,7,0.00
2013-5-2,76.8,66.5,57.7,55.1,53.4,50.9,81,64,45,30.56,30.42,8,3,8,0.00
2013-5-3,79.3,68.1,57.4,57.4,50.9,36.4,87,57,26,30.44,30.32,12,5,12,0.00
2013-5-4,72.5,64.5,57.9,48.1,44.7,38.2,65,50,35,30.37,30.28,10,5,10,0.00
2013-5-5,66.7,61.9,54.5,50.0,44.8,38.6,76,54,38,30.33,30.25,16,2,16,0.01
2013-5-6,62.4,57.9,54.0,58.4,54.0,48.6,93,87,73,30.32,30.25,9,2,9,0.33
2013-5-7,75.0,63.1,55.9,61.4,56.5,54.0,95,80,53,30.32,30.25,14,3,14,0.04
2013-5-8,77.0,65.3,54.1,60.4,56.0,52.2,94,74,48,30.32,30.25,11,2,11,0.04
2013-5-9,86.0,68.3,51.3,60.8,55.7,49.9,97,69,31,30.35,30.27,11,2,11,0.00
2013-5-10,72.7,63.8,59.7,63.8,61.0,58.1,97,91,73,30.30,30.13,17,3,17,0.76
2013-5-11,61.2,53.4,43.5,59.1,48.7,38.6,94,84,69,30.32,30.17,19,4,19,0.02
2013-5-12,57.2,47.1,36.1,39.6,33.8,28.4,95,64,37,30.43,30.31,20,3,20,0.01
2013-5-13,63.0,50.5,37.4,38.4,32.2,24.0,90,54,25,30.50,30.42,15,2,15,0.00
2013-5-14,81.9,63.0,41.0,58.4,45.2,33.7,81,55,35,30.46,30.15,18,5,18,0.00
2013-5-15,91.8,79.3,68.7,61.0,58.6,56.0,70,51,33,30.19,30.13,21,6,21,0.00
2013-5-16,83.8,71.3,63.0,66.9,61.2,56.7,96,72,46,30.32,30.16,11,2,11,0.52
2013-5-17,110.1,68.9,58.8,99.9,62.6,57.7,100,83,46,31.11,30.30,12,2,12,0.06
2013-5-18,81.0,69.9,62.2,67.9,64.4,61.4,100,84,60,30.42,30.30,7,1,7,0.01
2013-5-19,87.3,72.9,61.0,70.5,65.6,60.1,100,80,52,30.35,30.24,11,2,11,0.00
2013-5-20,88.9,76.6,66.2,72.4,68.1,64.1,100,77,51,30.34,30.22,15,3,15,0.00
2013-5-21,88.2,78.2,69.4,68.5,64.4,29.3,88,64,42,30.29,30.13,16,5,16,0.00
2013-5-22,83.1,71.1,64.8,67.5,63.4,60.8,93,78,50,30.18,30.07,19,4,19,0.21
2013-5-23,73.6,64.2,49.3,64.6,58.5,43.5,100,83,59,30.43,30.12,16,5,16,0.11
2013-5-24,66.4,54.5,45.9,44.5,39.2,32.2,84,59,32,30.63,30.43,21,5,21,0.00
2013-5-25,70.5,55.9,41.0,46.5,40.6,36.1,92,61,30,30.72,30.55,8,1,8,0.00
2013-5-26,75.0,61.2,45.3,46.9,42.5,37.3,86,54,29,30.64,30.51,8,2,8,0.00
2013-5-27,82.9,66.2,50.7,61.7,52.9,43.3,94,64,47,30.55,30.28,13,4,13,0.28
2013-5-28,86.4,77.1,68.4,66.9,62.2,57.8,77,61,42,30.35,30.26,24,5,24,0.00
2013-5-29,90.5,78.8,70.5,65.2,60.3,55.6,74,55,33,30.41,30.31,18,4,18,0.00
2013-5-30,90.3,77.8,64.4,68.7,65.3,62.3,95,68,46,30.48,30.34,18,3,18,0.00
2013-5-31,86.4,74.2,68.0,70.8,66.4,63.0,100,78,53,30.40,30.29,31,4,31,0.51
2013-6-1,84.4,74.7,67.3,69.6,67.7,66.0,100,80,56,30.30,30.11,18,5,20,0.12
2013-6-2,83.3,72.1,64.9,68.6,61.9,57.9,93,71,48,30.27,30.13,13,4,13,0.01
2013-6-3,68.0,61.1,51.3,57.9,51.8,47.8,89,72,56,30.40,30.27,11,3,11,0.00
2013-6-4,79.7,63.4,45.9,52.4,46.9,40.1,97,61,28,30.50,30.39,10,2,10,0.00
2013-6-5,86.5,71.1,54.9,59.8,53.0,46.7,76,54,35,30.44,30.20,9,2,9,0.00
2013-6-6,71.4,65.2,60.8,65.6,61.5,56.1,97,88,61,30.23,30.13,11,2,11,0.48
2013-6-7,76.8,64.8,56.8,59.8,56.8,53.7,96,77,51,30.25,30.14,14,4,14,0.00
2013-6-8,78.8,66.3,53.2,61.6,56.9,51.6,95,73,52,30.38,30.22,8,1,8,0.00
2013-6-9,85.3,73.4,61.3,66.8,62.5,58.6,93,71,43,30.41,30.25,11,3,11,0.00
2013-6-10,82.8,70.4,65.5,68.7,65.1,61.9,100,84,53,30.25,30.12,14,3,14,0.44
2013-6-11,89.4,75.5,63.9,69.7,65.5,62.5,97,74,44,30.30,30.17,12,3,12,0.02
2013-6-12,92.1,81.2,68.5,75.9,71.2,65.5,93,73,56,30.26,30.06,12,3,12,0.01
2013-6-13,83.1,72.8,65.7,73.0,61.1,53.3,100,68,45,30.25,29.95,18,4,18,1.38
2013-6-14,81.0,69.3,57.0,62.1,57.3,54.0,92,67,45,30.40,30.25,12,2,12,0.00
2013-6-15,84.2,70.8,55.4,64.1,60.6,54.3,97,72,46,30.46,30.29,10,1,10,0.00
2013-6-16,80.8,72.6,67.5,69.0,65.4,11.0,91,79,10,30.33,30.26,14,3,14,0.05
2013-6-17,91.8,77.0,66.9,72.4,67.5,62.1,95,75,39,30.32,30.21,9,2,9,0.00
2013-6-18,87.4,74.9,65.3,69.0,64.2,57.5,91,71,46,30.34,30.19,14,3,14,0.00
2013-6-19,83.7,69.0,56.8,57.4,53.7,48.1,91,62,33,30.46,30.34,10,2,10,0.00
2013-6-20,89.4,71.7,54.0,61.9,57.2,50.5,90,64,35,30.54,30.46,8,1,8,0.00
2013-6-21,89.8,75.8,58.3,66.5,62.0,56.6,95,66,36,30.56,30.45,12,2,12,0.00
2013-6-22,91.9,78.1,64.8,75.2,68.5,63.3,97,74,52,30.50,30.39,11,2,11,0.07
2013-6-23,93.0,77.8,65.1,73.3,67.2,61.3,100,73,43,30.48,30.37,16,3,16,0.00
2013-6-24,86.5,70.6,64.9,71.8,66.8,63.8,100,89,61,30.47,30.42,10,1,10,0.00